Virtual Norwegian is not affiliated with Norwegian Air Shuttle in any way.
If you are looking for the real "Norwegian", or you wish to book Norwegian flights, please visit Norwegian.com


We use cookies to ensure you get the best experience on our website.   ACCEPT

EGCC - MAN - Manchester (Manchester)

General Info Alternate Airport
ICAO: EGCC Elevation: 257 ft ICAO: EGGP
IATA: MAN Country: United Kingdom IATA: LPL
City: Manchester Charts: Log in to view charts City: Liverpool
Name: Manchester Hub: No Name Liverpool
General Info
ICAO: EGCC
IATA: MAN
City: Manchester
Name: Manchester
Elevation: 257 ft
Country: United Kingdom
Charts: Log in to view charts
Hub: No
 
Alternate Airport
ICAO: EGGP
IATA: LPL
City: Liverpool
Name: Liverpool

Weather
241750Z AUTO VRB02KT 9999 NCD 25/13 Q1016 NOSIG
Weather
241750Z AUTO VRB02KT 9999 NCD 25/13 Q1016 NOSIG

Runway Info
05L
Length ILS/LOC Course
3048 m 109.50 053
05R
Length ILS/LOC Course
3050 m 111.55 053
23L
Length ILS/LOC Heading
3050 m N/A 231
23R
Length ILS/LOC Course
3048 m 109.50 233

NOTAMs
NOTAMs currently unavailable.
NOTAMs
NOTAMs currently unavailable

Route map
Airport
Airport (hub)